Time;durP1;ratioP1;P1;durP2;ratioP2;P2;SDS_P1;SDS_P2;PMS_P1;PMS_P2;Temp;Humidity;BMP_temperature;BMP_pressure;BME280_temperature;BME280_humidity;BME280_pressure;Samples;Min_cycle;Max_cycle;Signal;HPM_P1;HPM_P2
2022/06/09 00:01:18;;;;;;;12.57;10.40;;;15.30;99.90;;;;;;6196328;28;20085;-75
2022/06/09 00:04:23;;;;;;;8.18;6.15;;;15.30;99.90;;;;;;6200725;28;20050;-75
2022/06/09 00:07:27;;;;;;;15.52;9.93;;;15.30;99.90;;;;;;6183618;28;20402;-75
2022/06/09 00:10:33;;;;;;;10.52;8.48;;;15.40;99.90;;;;;;6198170;28;20566;-75
2022/06/09 00:13:38;;;;;;;14.63;10.43;;;15.30;99.90;;;;;;6179956;28;21703;-76
2022/06/09 00:16:41;;;;;;;14.18;8.93;;;15.30;99.90;;;;;;6181898;28;20054;-76
2022/06/09 00:19:44;;;;;;;20.73;11.43;;;15.30;99.90;;;;;;6198090;28;20085;-76
2022/06/09 00:22:47;;;;;;;21.33;12.30;;;15.30;99.90;;;;;;6182412;28;20046;-76
2022/06/09 00:25:50;;;;;;;5.10;1.48;;;15.30;99.90;;;;;;6200786;28;20054;-76
2022/06/09 00:28:52;;;;;;;24.23;13.07;;;15.30;99.90;;;;;;6180175;28;20061;-75
2022/06/09 00:31:54;;;;;;;26.40;12.68;;;15.40;99.90;;;;;;6171526;28;20050;-76
2022/06/09 00:34:56;;;;;;;24.20;13.30;;;15.50;99.90;;;;;;6198299;28;20057;-75
2022/06/09 00:37:59;;;;;;;12.95;7.93;;;15.50;99.90;;;;;;6182909;28;20046;-76
2022/06/09 00:41:02;;;;;;;15.10;8.65;;;15.40;99.90;;;;;;6190139;28;20046;-76
2022/06/09 00:44:18;;;;;;;14.57;7.75;;;15.50;99.90;;;;;;6181489;28;20054;-76
2022/06/09 00:47:24;;;;;;;23.65;12.75;;;15.50;99.90;;;;;;6191382;28;20049;-75
2022/06/09 00:50:28;;;;;;;21.88;11.15;;;15.50;99.90;;;;;;6197409;28;20118;-75
2022/06/09 00:53:35;;;;;;;25.33;12.52;;;15.50;99.90;;;;;;6198745;28;20318;-75
2022/06/09 00:56:44;;;;;;;20.25;10.43;;;15.50;99.90;;;;;;6197927;28;20046;-76
2022/06/09 00:59:51;;;;;;;32.22;14.32;;;15.50;99.90;;;;;;6198611;28;20054;-75
2022/06/09 01:02:58;;;;;;;27.20;13.20;;;15.50;99.90;;;;;;6181466;28;20073;-76
2022/06/09 01:06:06;;;;;;;17.80;9.05;;;15.50;99.90;;;;;;6173003;28;20050;-77
2022/06/09 01:09:12;;;;;;;32.80;14.95;;;15.50;99.90;;;;;;6194687;28;20495;-76
2022/06/09 01:12:24;;;;;;;23.48;11.85;;;15.50;99.90;;;;;;6197491;28;20065;-76
2022/06/09 01:15:33;;;;;;;28.23;12.10;;;15.60;99.90;;;;;;6173290;28;20050;-76
2022/06/09 01:18:48;;;;;;;36.70;13.73;;;15.50;99.90;;;;;;6192130;28;20046;-76
2022/06/09 01:22:16;;;;;;;35.85;15.02;;;15.50;99.90;;;;;;6181430;28;20050;-77
2022/06/09 01:25:51;;;;;;;35.83;15.88;;;15.50;99.90;;;;;;6197435;28;20050;-76
2022/06/09 01:29:16;;;;;;;19.75;8.02;;;15.50;99.90;;;;;;6183852;28;20046;-76
2022/06/09 01:32:25;;;;;;;23.52;9.90;;;15.50;99.90;;;;;;6198108;28;20050;-77
2022/06/09 01:35:36;;;;;;;26.75;10.65;;;15.40;99.90;;;;;;6174679;28;20046;-77
2022/06/09 01:38:46;;;;;;;37.83;12.98;;;15.40;99.90;;;;;;6180121;28;20050;-76
2022/06/09 01:41:49;;;;;;;37.15;14.00;;;15.40;99.90;;;;;;6189840;28;20049;-76
2022/06/09 01:44:52;;;;;;;44.20;16.17;;;15.40;99.90;;;;;;6196722;28;20146;-76
2022/06/09 01:48:00;;;;;;;;;;;15.30;99.90;;;;;;6206440;28;20419;-76
2022/06/09 01:51:07;;;;;;;36.30;12.30;;;15.30;99.90;;;;;;6197780;28;19933;-76
2022/06/09 01:54:15;;;;;;;40.70;12.13;;;15.30;99.90;;;;;;6186282;28;20082;-77
2022/06/09 01:57:22;;;;;;;42.50;14.57;;;15.30;99.90;;;;;;6193860;28;20042;-77
2022/06/09 02:00:26;;;;;;;40.30;13.10;;;15.30;99.90;;;;;;6180011;28;20383;-77
2022/06/09 02:03:33;;;;;;;39.95;13.85;;;15.30;99.90;;;;;;6201986;28;20050;-77
2022/06/09 02:06:37;;;;;;;32.28;12.35;;;15.30;99.90;;;;;;6197288;28;20046;-76
2022/06/09 02:09:39;;;;;;;23.58;8.73;;;15.30;99.90;;;;;;6197528;28;20042;-77
2022/06/09 02:12:41;;;;;;;26.77;9.82;;;15.30;99.90;;;;;;6194114;28;20042;-76
2022/06/09 02:15:47;;;;;;;43.53;14.00;;;15.30;99.90;;;;;;6188888;28;20066;-77
2022/06/09 02:18:53;;;;;;;36.45;13.57;;;15.40;99.90;;;;;;6196181;28;20176;-77
2022/06/09 02:21:56;;;;;;;26.73;10.65;;;15.40;99.90;;;;;;6194207;28;20218;-76
2022/06/09 02:24:58;;;;;;;22.52;8.52;;;15.30;99.90;;;;;;6196382;28;20145;-77
2022/06/09 02:28:00;;;;;;;17.02;5.78;;;15.40;99.90;;;;;;6185967;28;20412;-76
2022/06/09 02:31:02;;;;;;;32.03;11.82;;;15.50;99.90;;;;;;6175773;28;20097;-77
2022/06/09 02:34:05;;;;;;;31.88;11.73;;;15.50;99.90;;;;;;6197064;28;20046;-77
2022/06/09 02:37:07;;;;;;;29.80;11.60;;;15.50;99.90;;;;;;6196181;28;20057;-77
2022/06/09 02:40:10;;;;;;;11.77;4.07;;;15.50;99.90;;;;;;6197763;28;20050;-76
2022/06/09 02:43:13;;;;;;;35.60;11.97;;;15.60;99.90;;;;;;6197005;28;20046;-76
2022/06/09 02:46:15;;;;;;;28.20;11.45;;;15.60;99.90;;;;;;6196258;28;20863;-76
2022/06/09 02:49:18;;;;;;;33.90;13.77;;;15.50;99.90;;;;;;6179837;28;20058;-77
2022/06/09 02:52:20;;;;;;;25.65;10.20;;;15.40;99.90;;;;;;6178139;28;20042;-76
2022/06/09 02:55:22;;;;;;;31.60;11.30;;;15.40;99.90;;;;;;6193293;28;20522;-76
2022/06/09 02:58:24;;;;;;;17.27;7.68;;;15.30;99.90;;;;;;6196167;28;20046;-76
2022/06/09 03:01:28;;;;;;;36.65;14.95;;;15.30;99.90;;;;;;6194567;28;20050;-76
2022/06/09 03:04:32;;;;;;;20.33;10.15;;;15.20;99.90;;;;;;6197036;28;20046;-76
2022/06/09 03:07:34;;;;;;;30.33;13.15;;;15.20;99.90;;;;;;6194712;28;20050;-80
2022/06/09 03:10:37;;;;;;;37.60;15.77;;;15.10;99.90;;;;;;6197958;28;20407;-79
2022/06/09 03:13:39;;;;;;;28.88;12.27;;;15.10;99.90;;;;;;6211973;28;20315;-80
2022/06/09 03:16:41;;;;;;;34.15;16.40;;;15.10;99.90;;;;;;6196428;28;20050;-80
2022/06/09 03:19:45;;;;;;;34.92;13.05;;;15.10;99.90;;;;;;6173551;28;20049;-80
2022/06/09 03:22:47;;;;;;;22.77;9.73;;;15.10;99.90;;;;;;6156526;28;20055;-81
2022/06/09 03:25:49;;;;;;;27.42;10.38;;;15.20;99.90;;;;;;6166452;28;20054;-80
2022/06/09 03:28:52;;;;;;;19.73;9.27;;;15.30;99.90;;;;;;6208221;28;20517;-80
2022/06/09 03:31:56;;;;;;;21.90;8.85;;;15.30;99.90;;;;;;6203137;28;20061;-80
2022/06/09 03:34:59;;;;;;;35.78;14.85;;;15.30;99.90;;;;;;6183800;28;20050;-80
2022/06/09 03:38:01;;;;;;;27.00;12.73;;;15.40;99.90;;;;;;6202871;28;20042;-80
2022/06/09 03:41:04;;;;;;;27.73;13.13;;;15.40;99.90;;;;;;6184918;28;20262;-80
2022/06/09 03:44:06;;;;;;;21.48;10.52;;;15.30;99.90;;;;;;6184540;28;20101;-80
2022/06/09 03:47:11;;;;;;;31.58;14.23;;;15.30;99.90;;;;;;6201230;28;20046;-80
2022/06/09 03:50:17;;;;;;;28.10;12.57;;;15.40;99.90;;;;;;6202473;28;20572;-80
2022/06/09 03:53:19;;;;;;;22.50;10.40;;;15.40;99.90;;;;;;6179407;28;20068;-80
2022/06/09 03:56:22;;;;;;;25.23;11.77;;;15.40;99.90;;;;;;6200997;28;20053;-81
2022/06/09 03:59:24;;;;;;;27.55;10.80;;;15.40;99.90;;;;;;6199074;28;20426;-79
2022/06/09 04:02:26;;;;;;;27.15;13.18;;;15.40;99.90;;;;;;6202994;28;20489;-80
2022/06/09 04:05:29;;;;;;;35.17;15.85;;;15.40;99.90;;;;;;6200168;28;20054;-79
2022/06/09 04:08:33;;;;;;;22.48;9.38;;;15.50;99.90;;;;;;6180508;28;20506;-80
2022/06/09 04:11:35;;;;;;;;;;;15.40;99.90;;;;;;6201583;28;20481;-80
2022/06/09 04:14:37;;;;;;;37.42;15.80;;;15.40;99.90;;;;;;6201607;28;20318;-79
2022/06/09 04:17:39;;;;;;;22.83;10.43;;;15.40;99.90;;;;;;6201464;28;20046;-78
2022/06/09 04:20:42;;;;;;;33.65;15.27;;;15.40;99.90;;;;;;6207933;28;20052;-79
2022/06/09 04:23:44;;;;;;;36.80;16.63;;;15.40;99.90;;;;;;6176917;28;20058;-79
2022/06/09 04:26:46;;;;;;;33.45;15.45;;;15.40;99.90;;;;;;6159999;28;20423;-78
2022/06/09 04:29:48;;;;;;;32.58;15.80;;;15.40;99.90;;;;;;6191064;28;20398;-80
2022/06/09 04:32:50;;;;;;;27.85;12.90;;;15.50;99.90;;;;;;6201366;28;20057;-79
2022/06/09 04:35:54;;;;;;;17.77;8.20;;;15.50;99.90;;;;;;6183849;28;20046;-80
2022/06/09 04:38:56;;;;;;;27.65;13.95;;;15.60;99.90;;;;;;6213196;28;20057;-80
2022/06/09 04:41:58;;;;;;;24.33;12.27;;;15.70;99.90;;;;;;6158265;28;20129;-79
2022/06/09 04:45:00;;;;;;;306.00;36.88;;;15.70;99.90;;;;;;6180986;28;20050;-79
2022/06/09 04:48:02;;;;;;;20.02;8.95;;;15.80;99.90;;;;;;6181960;28;20073;-79
2022/06/09 04:51:07;;;;;;;19.83;9.95;;;15.90;99.90;;;;;;6181792;28;20096;-80
2022/06/09 04:54:09;;;;;;;32.00;16.08;;;16.10;99.90;;;;;;6186146;28;20061;-80
2022/06/09 04:57:10;;;;;;;26.75;14.70;;;16.20;99.90;;;;;;6199488;28;21022;-80
2022/06/09 05:00:14;;;;;;;26.88;13.50;;;16.20;99.90;;;;;;6198187;28;20372;-81
2022/06/09 05:03:16;;;;;;;26.83;13.90;;;16.10;99.90;;;;;;6171960;28;20046;-81
2022/06/09 05:06:21;;;;;;;31.60;18.20;;;16.10;99.90;;;;;;6200134;28;20066;-80
2022/06/09 05:09:23;;;;;;;24.08;12.48;;;16.10;99.90;;;;;;6179279;28;20057;-80
2022/06/09 05:12:25;;;;;;;14.50;8.63;;;16.10;99.90;;;;;;6223016;28;20046;-80
2022/06/09 05:15:27;;;;;;;18.55;10.93;;;16.10;99.90;;;;;;6217040;28;20405;-80
2022/06/09 05:18:31;;;;;;;29.38;16.05;;;16.10;99.90;;;;;;6166109;28;20250;-80
2022/06/09 05:21:34;;;;;;;;;;;16.20;99.90;;;;;;6199777;28;20058;-80
2022/06/09 05:24:36;;;;;;;26.90;13.77;;;16.10;99.90;;;;;;6199373;28;20267;-80
2022/06/09 05:27:38;;;;;;;32.03;17.70;;;16.10;99.90;;;;;;6201193;28;20046;-79
2022/06/09 05:30:40;;;;;;;26.05;13.82;;;16.20;99.90;;;;;;6194148;28;20047;-80
2022/06/09 05:33:42;;;;;;;23.70;13.90;;;16.30;99.90;;;;;;6164108;28;20046;-80
2022/06/09 05:36:45;;;;;;;36.05;21.02;;;16.50;99.90;;;;;;6184364;28;20082;-80
2022/06/09 05:46:28;;;;;;;36.88;21.02;;;16.40;99.90;;;;;;6181956;28;20046;-80
2022/06/09 05:49:30;;;;;;;32.63;18.55;;;16.30;99.90;;;;;;6198259;28;20070;-76
2022/06/09 05:52:34;;;;;;;27.45;14.98;;;16.20;99.90;;;;;;6181069;28;20057;-77
2022/06/09 05:55:36;;;;;;;20.58;14.68;;;16.20;99.90;;;;;;6184760;28;20426;-81
2022/06/09 05:58:38;;;;;;;24.83;12.88;;;16.20;99.90;;;;;;6198038;28;20054;-80
2022/06/09 06:01:40;;;;;;;98.80;30.45;;;16.20;99.90;;;;;;6190102;28;20072;-81
2022/06/09 06:04:43;;;;;;;723.90;65.45;;;16.20;99.90;;;;;;6203266;28;20077;-83
2022/06/09 06:07:46;;;;;;;6.53;4.10;;;16.70;99.90;;;;;;6192878;28;20415;-80
2022/06/09 06:10:48;;;;;;;11.35;5.60;;;16.70;99.90;;;;;;6165574;28;20498;-78
2022/06/09 06:13:50;;;;;;;10.70;5.38;;;16.60;99.90;;;;;;6194512;28;20449;-81
2022/06/09 06:16:52;;;;;;;20.45;12.30;;;16.70;99.90;;;;;;6161721;28;20046;-78
2022/06/09 06:19:54;;;;;;;20.63;14.13;;;16.70;99.90;;;;;;6206687;28;20046;-80
2022/06/09 06:22:58;;;;;;;34.25;21.27;;;16.90;99.90;;;;;;6190702;28;20518;-78
2022/06/09 06:25:59;;;;;;;;;;;16.90;99.90;;;;;;6194015;28;20042;-79
2022/06/09 06:29:03;;;;;;;17.00;10.82;;;16.70;99.90;;;;;;6186196;28;19921;-79
2022/06/09 06:32:06;;;;;;;35.10;20.73;;;16.60;99.90;;;;;;6191616;28;20049;-79
2022/06/09 06:35:09;;;;;;;23.00;15.13;;;16.70;99.90;;;;;;6202510;28;20050;-80
2022/06/09 06:38:12;;;;;;;33.10;20.92;;;16.70;99.90;;;;;;6201062;28;20052;-77
2022/06/09 06:41:14;;;;;;;23.42;14.25;;;16.80;99.90;;;;;;6197686;28;20046;-76
2022/06/09 06:44:17;;;;;;;10.55;5.90;;;17.00;99.90;;;;;;6197017;28;20061;-80
2022/06/09 06:47:19;;;;;;;10.13;4.47;;;17.10;99.90;;;;;;6197998;28;20487;-78
2022/06/09 06:50:21;;;;;;;24.83;16.38;;;17.20;99.90;;;;;;6179166;28;20054;-79
2022/06/09 06:53:25;;;;;;;25.52;15.50;;;17.30;99.90;;;;;;6197570;28;20046;-78
2022/06/09 06:56:27;;;;;;;25.55;14.73;;;17.60;99.90;;;;;;6180801;28;20054;-78
2022/06/09 06:59:29;;;;;;;18.38;12.32;;;17.50;99.90;;;;;;6196843;28;20053;-78
2022/06/09 07:02:31;;;;;;;14.90;9.85;;;17.30;99.90;;;;;;6195706;28;20034;-78
2022/06/09 07:05:33;;;;;;;27.85;18.65;;;17.40;99.90;;;;;;6193657;28;20050;-78
2022/06/09 07:08:36;;;;;;;15.57;11.35;;;17.60;99.90;;;;;;6194435;28;20789;-79
2022/06/09 07:11:39;;;;;;;;;;;18.00;99.90;;;;;;6176135;28;20491;-79
2022/06/09 07:14:41;;;;;;;30.20;19.88;;;18.60;99.90;;;;;;6170100;28;20449;-79
2022/06/09 07:17:43;;;;;;;12.63;8.80;;;19.00;99.90;;;;;;6164373;28;20189;-79
2022/06/09 07:20:45;;;;;;;26.10;19.00;;;18.80;99.90;;;;;;6148480;28;20052;-79
2022/06/09 07:23:48;;;;;;;18.15;13.63;;;18.80;99.90;;;;;;6151905;28;20436;-79
2022/06/09 07:26:51;;;;;;;6.90;4.85;;;19.20;99.90;;;;;;6168878;28;20061;-79
2022/06/09 07:29:53;;;;;;;21.52;17.30;;;19.50;99.90;;;;;;6172344;28;20095;-80
2022/06/09 07:32:56;;;;;;;11.27;8.23;;;19.40;99.90;;;;;;6172370;28;20051;-79
2022/06/09 07:35:58;;;;;;;17.98;12.00;;;19.10;99.90;;;;;;6171623;28;20047;-79
2022/06/09 07:39:02;;;;;;;10.35;6.50;;;18.90;99.90;;;;;;6164233;28;20539;-80
2022/06/09 07:42:05;;;;;;;23.23;17.48;;;19.00;99.90;;;;;;6170942;28;20412;-79
2022/06/09 07:45:09;;;;;;;20.67;13.57;;;18.80;99.90;;;;;;6164142;28;20062;-80
2022/06/09 07:48:11;;;;;;;19.45;15.48;;;18.90;99.90;;;;;;6170168;28;20061;-78
2022/06/09 07:51:13;;;;;;;14.73;12.35;;;19.00;99.90;;;;;;6168465;28;20043;-80
2022/06/09 07:54:17;;;;;;;14.85;11.90;;;18.90;99.90;;;;;;6170755;28;20111;-79
2022/06/09 07:57:19;;;;;;;16.90;13.15;;;18.70;99.90;;;;;;6153777;28;20190;-80
2022/06/09 08:00:22;;;;;;;15.13;10.93;;;18.70;99.90;;;;;;6157577;28;20046;-80
2022/06/09 08:03:27;;;;;;;9.77;6.50;;;18.90;99.90;;;;;;6161864;28;20500;-80
2022/06/09 08:06:29;;;;;;;17.45;12.15;;;18.80;99.90;;;;;;6166730;28;20205;-79
2022/06/09 08:09:33;;;;;;;8.67;7.07;;;19.00;99.90;;;;;;6166150;28;20039;-80
2022/06/09 08:12:35;;;;;;;;;;;19.20;99.90;;;;;;6166793;28;20121;-80
2022/06/09 08:15:38;;;;;;;9.75;8.05;;;19.30;99.90;;;;;;6187136;28;20378;-80
2022/06/09 08:18:40;;;;;;;13.65;10.68;;;19.40;99.90;;;;;;6181052;28;20053;-80
2022/06/09 08:21:43;;;;;;;6.57;5.13;;;19.70;99.90;;;;;;6197983;28;20527;-80
2022/06/09 08:24:47;;;;;;;8.82;7.53;;;19.70;99.90;;;;;;6191317;28;20053;-80
2022/06/09 08:27:49;;;;;;;7.70;6.53;;;19.90;99.90;;;;;;6178689;28;20402;-80
2022/06/09 08:30:53;;;;;;;9.07;5.93;;;20.00;99.90;;;;;;6201698;28;20050;-80
2022/06/09 08:33:56;;;;;;;6.05;4.50;;;20.00;99.90;;;;;;6201286;28;20151;-79
2022/06/09 08:36:58;;;;;;;10.30;6.45;;;20.10;99.90;;;;;;6197234;28;20134;-80
2022/06/09 08:40:01;;;;;;;5.57;4.10;;;20.30;99.90;;;;;;6194203;28;20068;-80
2022/06/09 08:43:11;;;;;;;;;;;20.40;99.90;;;;;;6178116;28;20057;-80
2022/06/09 08:46:25;;;;;;;6.40;4.78;;;20.40;99.90;;;;;;6191883;28;20067;-79
2022/06/09 08:49:49;;;;;;;6.97;4.60;;;20.40;99.90;;;;;;6159781;28;20058;-79
2022/06/09 08:52:56;;;;;;;5.93;4.22;;;20.50;99.90;;;;;;6200811;28;20054;-80
2022/06/09 08:56:06;;;;;;;8.30;4.95;;;20.50;99.90;;;;;;6197282;28;20177;-80
2022/06/09 08:59:14;;;;;;;5.88;4.00;;;20.50;99.90;;;;;;6160077;28;20059;-78
2022/06/09 09:02:28;;;;;;;5.95;4.00;;;20.40;99.90;;;;;;6180975;28;20111;-80
2022/06/09 09:05:34;;;;;;;4.22;3.03;;;20.30;99.90;;;;;;6181989;28;20109;-80
2022/06/09 09:08:38;;;;;;;2.90;2.67;;;20.30;99.90;;;;;;6207378;28;20050;-79
2022/06/09 09:11:53;;;;;;;3.58;2.60;;;20.30;99.90;;;;;;6183466;28;20116;-80
2022/06/09 09:15:02;;;;;;;3.28;2.15;;;20.10;99.90;;;;;;6198500;28;20062;-80
2022/06/09 09:18:22;;;;;;;4.03;2.40;;;20.00;99.90;;;;;;6196791;28;20046;-80
2022/06/09 09:21:44;;;;;;;4.57;2.92;;;19.80;99.90;;;;;;6170467;28;20047;-80
2022/06/09 09:25:03;;;;;;;4.88;2.72;;;20.00;99.90;;;;;;6171751;28;20100;-80
2022/06/09 09:28:16;;;;;;;3.42;1.98;;;20.40;99.90;;;;;;6198882;28;20399;-79
2022/06/09 09:31:34;;;;;;;3.20;1.75;;;20.60;99.90;;;;;;6193133;28;20042;-79
2022/06/09 09:34:41;;;;;;;3.70;1.85;;;20.50;99.90;;;;;;6193943;28;20415;-80
2022/06/09 09:37:46;;;;;;;4.25;1.80;;;20.50;99.90;;;;;;6192991;28;20051;-81
2022/06/09 09:40:51;;;;;;;3.15;1.40;;;20.60;99.90;;;;;;6173435;28;20046;-80
2022/06/09 09:43:55;;;;;;;2.78;1.45;;;20.70;99.90;;;;;;6186130;28;20046;-80
2022/06/09 09:47:01;;;;;;;3.00;1.52;;;20.80;99.90;;;;;;6198329;28;20498;-80
2022/06/09 09:50:08;;;;;;;3.40;2.10;;;20.80;99.90;;;;;;6193035;28;20047;-79
2022/06/09 09:53:25;;;;;;;7.45;1.60;;;20.90;99.90;;;;;;6182561;28;20737;-80
2022/06/09 09:56:34;;;;;;;3.13;1.30;;;20.90;99.90;;;;;;6191170;28;20046;-80
2022/06/09 09:59:51;;;;;;;5.07;1.88;;;20.80;99.90;;;;;;6192919;28;20082;-84
2022/06/09 10:09:51;;;;;;;5.88;1.70;;;21.30;99.90;;;;;;6170824;28;20164;-76
2022/06/09 10:12:53;;;;;;;4.50;1.45;;;21.30;99.90;;;;;;6167309;28;20457;-76
2022/06/09 10:15:56;;;;;;;3.53;1.00;;;21.20;99.90;;;;;;6182615;28;20416;-79
2022/06/09 10:19:01;;;;;;;;;;;21.30;99.90;;;;;;6180612;28;20081;-78
2022/06/09 10:22:04;;;;;;;;;;;21.10;99.90;;;;;;6178682;28;19922;-77
2022/06/09 10:25:20;;;;;;;3.08;1.00;;;21.00;99.90;;;;;;6216440;28;20402;-80
2022/06/09 10:28:34;;;;;;;5.40;1.35;;;20.90;99.90;;;;;;6169939;28;20053;-78
2022/06/09 10:31:44;;;;;;;6.00;1.30;;;21.00;99.90;;;;;;6168656;28;20057;-77
2022/06/09 10:34:52;;;;;;;3.80;1.15;;;21.20;99.90;;;;;;6199345;28;20046;-76
2022/06/09 10:38:00;;;;;;;4.70;1.10;;;21.30;99.90;;;;;;6180942;28;20050;-77
2022/06/09 10:41:05;;;;;;;2.88;0.93;;;21.40;99.90;;;;;;6189248;28;20038;-77
2022/06/09 10:44:14;;;;;;;3.53;0.98;;;21.50;99.90;;;;;;6173514;28;20051;-76
2022/06/09 10:57:59;;;;;;;4.15;1.35;;;21.10;99.90;;;;;;6103933;29;20090;-76
2022/06/09 11:01:01;;;;;;;3.08;1.00;;;21.10;99.90;;;;;;6197785;28;20043;-77
2022/06/09 11:04:11;;;;;;;3.47;0.82;;;21.30;99.90;;;;;;6193785;28;20042;-78
2022/06/09 11:07:27;;;;;;;4.93;1.20;;;21.20;99.90;;;;;;6180352;28;20046;-76
2022/06/09 11:10:44;;;;;;;2.95;0.90;;;21.10;99.90;;;;;;6196873;28;20058;-77
2022/06/09 11:13:57;;;;;;;4.28;1.10;;;21.00;99.90;;;;;;6195316;28;20054;-79
2022/06/09 11:17:14;;;;;;;5.55;1.02;;;20.80;99.90;;;;;;6175856;28;20043;-77
2022/06/09 11:20:27;;;;;;;4.45;1.20;;;20.50;99.90;;;;;;6174651;28;20058;-79
2022/06/09 11:23:43;;;;;;;3.35;1.25;;;20.70;99.90;;;;;;6155846;28;20094;-78
2022/06/09 11:26:53;;;;;;;5.18;0.90;;;21.10;99.90;;;;;;6176768;28;20061;-78
2022/06/09 11:30:11;;;;;;;3.63;1.20;;;21.40;99.90;;;;;;6172696;28;20553;-79
2022/06/09 11:33:23;;;;;;;4.10;0.90;;;21.60;99.90;;;;;;6173436;28;20054;-79
2022/06/09 11:36:33;;;;;;;5.43;1.50;;;21.60;99.90;;;;;;6183599;28;20542;-79
2022/06/09 11:39:48;;;;;;;3.88;1.35;;;21.60;99.90;;;;;;6180254;28;20533;-79
2022/06/09 11:43:03;;;;;;;3.45;0.95;;;21.70;99.90;;;;;;6201353;28;20497;-79
2022/06/09 11:46:12;;;;;;;5.10;1.20;;;21.80;99.90;;;;;;6193650;28;20133;-79
2022/06/09 11:49:19;;;;;;;6.18;1.20;;;21.70;99.90;;;;;;6176763;28;20092;-79
2022/06/09 11:52:28;;;;;;;4.20;1.05;;;21.70;99.90;;;;;;6184012;28;20483;-79
2022/06/09 11:58:50;;;;;;;5.90;0.85;;;21.70;99.90;;;;;;6197908;28;20050;-79
2022/06/09 12:02:20;;;;;;;2.70;0.75;;;21.40;99.90;;;;;;6195538;28;20043;-78
2022/06/09 12:05:27;;;;;;;3.38;1.00;;;21.20;99.60;;;;;;6178309;28;20137;-78
2022/06/09 12:08:44;;;;;;;5.57;1.30;;;21.20;99.90;;;;;;6196528;28;20437;-79
2022/06/09 12:11:54;;;;;;;4.60;1.10;;;21.40;99.90;;;;;;6175256;28;20062;-78
2022/06/09 12:15:22;;;;;;;3.70;0.95;;;21.30;99.90;;;;;;6179100;28;20059;-78
2022/06/09 12:18:52;;;;;;;4.20;0.88;;;21.30;99.90;;;;;;6178925;28;20049;-78
2022/06/09 12:21:58;;;;;;;3.50;0.82;;;21.40;99.90;;;;;;6175178;28;20136;-78
2022/06/09 12:25:25;;;;;;;3.05;1.40;;;21.50;99.90;;;;;;6200642;28;20042;-78
2022/06/09 12:29:00;;;;;;;3.13;0.70;;;21.50;99.90;;;;;;6192600;28;20051;-79
2022/06/09 12:32:31;;;;;;;;;;;21.40;99.90;;;;;;6184735;28;20396;-77
2022/06/09 12:35:37;;;;;;;5.65;0.82;;;21.50;99.90;;;;;;6182781;28;19932;-76
2022/06/09 12:38:51;;;;;;;4.47;1.10;;;21.60;99.90;;;;;;6183599;28;20050;-77
2022/06/09 12:41:56;;;;;;;3.05;0.70;;;21.70;99.90;;;;;;6197124;28;20042;-78
2022/06/09 12:45:04;;;;;;;4.93;1.15;;;21.80;98.90;;;;;;6192099;28;20050;-78
2022/06/09 12:48:12;;;;;;;4.15;0.80;;;21.90;99.90;;;;;;6198678;28;20053;-79
2022/06/09 12:51:24;;;;;;;3.17;0.90;;;21.90;99.90;;;;;;6204407;28;20050;-78
2022/06/09 12:54:31;;;;;;;3.75;0.80;;;21.90;99.90;;;;;;6210515;28;20044;-78
2022/06/09 12:57:43;;;;;;;2.30;0.65;;;22.00;99.90;;;;;;6178340;28;20051;-79
2022/06/09 13:00:49;;;;;;;3.63;0.88;;;21.90;99.90;;;;;;6192966;28;20514;-79
2022/06/09 13:03:53;;;;;;;5.38;0.73;;;21.70;99.50;;;;;;6197945;28;20050;-79
2022/06/09 13:06:57;;;;;;;5.88;0.90;;;21.60;99.90;;;;;;6198423;28;20054;-78
2022/06/09 13:10:01;;;;;;;6.18;1.00;;;21.50;99.90;;;;;;6199788;28;20058;-78
2022/06/09 13:13:08;;;;;;;2.70;0.80;;;21.70;99.90;;;;;;6198924;28;20415;-78
2022/06/09 13:16:15;;;;;;;5.47;0.93;;;21.80;99.90;;;;;;6197291;28;20415;-78
2022/06/09 13:19:19;;;;;;;5.28;0.95;;;21.90;99.90;;;;;;6196832;28;20057;-77
2022/06/09 13:22:22;;;;;;;3.42;0.77;;;22.00;99.70;;;;;;6198812;28;20193;-79
2022/06/09 13:25:27;;;;;;;3.40;0.70;;;22.00;99.90;;;;;;6196401;28;20065;-78
2022/06/09 13:28:40;;;;;;;2.88;0.63;;;22.00;99.70;;;;;;6181646;28;20460;-78
2022/06/09 13:31:44;;;;;;;1.98;1.00;;;22.10;99.90;;;;;;6179487;28;20051;-78
2022/06/09 13:34:49;;;;;;;5.03;1.10;;;22.10;99.90;;;;;;6198596;28;20069;-78
2022/06/09 13:38:02;;;;;;;3.53;0.80;;;22.00;99.90;;;;;;6197352;28;20050;-78
2022/06/09 13:41:12;;;;;;;6.05;1.00;;;22.00;99.90;;;;;;6180330;28;20046;-78
2022/06/09 13:44:21;;;;;;;4.57;1.20;;;21.90;99.60;;;;;;6199805;28;20426;-78
2022/06/09 13:47:29;;;;;;;5.32;1.40;;;21.60;99.90;;;;;;6186394;28;20051;-79
2022/06/09 13:50:35;;;;;;;2.25;0.60;;;21.60;99.90;;;;;;6180590;28;20042;-78
2022/06/09 13:53:48;;;;;;;4.97;1.00;;;21.30;99.90;;;;;;6199481;28;20064;-77
2022/06/09 13:56:52;;;;;;;5.82;1.30;;;21.10;99.90;;;;;;6199763;28;20058;-78
2022/06/09 13:59:56;;;;;;;3.92;1.35;;;20.80;99.90;;;;;;6185870;28;20566;-78
2022/06/09 14:03:02;;;;;;;4.05;1.00;;;20.70;99.90;;;;;;6181762;28;20058;-78
2022/06/09 14:06:07;;;;;;;3.55;1.00;;;20.80;99.90;;;;;;6181942;28;20096;-78
2022/06/09 14:09:12;;;;;;;4.38;1.13;;;20.80;99.90;;;;;;6199221;28;20054;-77
2022/06/09 14:12:15;;;;;;;5.90;1.17;;;21.20;99.90;;;;;;6167372;28;20057;-79
2022/06/09 14:15:19;;;;;;;3.30;0.70;;;21.30;99.90;;;;;;6191254;28;20066;-76
2022/06/09 14:18:24;;;;;;;2.88;1.13;;;21.40;99.90;;;;;;6181305;28;20046;-76
2022/06/09 14:21:26;;;;;;;4.18;1.00;;;21.50;99.00;;;;;;6196989;28;20050;-78
2022/06/09 14:24:29;;;;;;;4.50;1.00;;;21.40;99.90;;;;;;6180402;28;20073;-79
2022/06/09 14:27:31;;;;;;;4.20;1.10;;;21.50;99.90;;;;;;6200036;28;20053;-78
2022/06/09 14:30:35;;;;;;;4.90;1.10;;;21.20;99.00;;;;;;6179926;28;20053;-75
2022/06/09 14:33:37;;;;;;;2.83;1.00;;;21.00;99.90;;;;;;6199047;28;20238;-75
2022/06/09 14:36:39;;;;;;;2.20;0.75;;;20.90;99.90;;;;;;6181329;28;20401;-76
2022/06/09 14:39:41;;;;;;;4.03;1.15;;;21.10;99.90;;;;;;6181535;28;20065;-76
2022/06/09 14:42:43;;;;;;;4.40;1.48;;;20.90;99.70;;;;;;6179589;28;20050;-76
2022/06/09 14:45:49;;;;;;;3.97;1.02;;;21.00;99.90;;;;;;6181244;28;20415;-79
2022/06/09 14:48:51;;;;;;;5.95;1.13;;;21.20;99.90;;;;;;6181186;28;20619;-77
2022/06/09 14:51:53;;;;;;;3.75;1.00;;;21.30;99.90;;;;;;6197365;28;20403;-77
2022/06/09 14:54:55;;;;;;;3.80;0.80;;;21.20;99.90;;;;;;6198284;28;20086;-76
2022/06/09 14:57:57;;;;;;;6.53;1.60;;;21.00;99.90;;;;;;6180567;28;20069;-78
2022/06/09 15:01:01;;;;;;;15.68;6.13;;;21.00;99.90;;;;;;6176607;28;20060;-78
2022/06/09 15:04:02;;;;;;;;;;;21.00;99.90;;;;;;6191231;28;20553;-76
2022/06/09 16:08:10;;;;;;;5.50;1.10;;;20.60;99.90;;;;;;6174803;28;20062;-76
2022/06/09 16:11:24;;;;;;;5.07;0.90;;;20.40;99.90;;;;;;6186847;28;20057;-79
2022/06/09 16:14:44;;;;;;;6.43;1.40;;;20.40;99.90;;;;;;6144916;28;20090;-77
2022/06/09 16:17:46;;;;;;;9.63;2.17;;;20.50;99.90;;;;;;6144945;28;20528;-78
2022/06/09 16:20:50;;;;;;;6.72;1.50;;;20.50;99.90;;;;;;6166004;28;20051;-78
2022/06/09 16:23:53;;;;;;;5.57;1.42;;;20.40;99.90;;;;;;6164664;28;20066;-79
2022/06/09 16:26:55;;;;;;;7.30;1.52;;;20.40;99.90;;;;;;6159627;28;20062;-76
2022/06/09 16:29:57;;;;;;;5.38;1.70;;;20.30;99.90;;;;;;6170356;28;20503;-78
2022/06/09 16:33:00;;;;;;;8.95;2.03;;;20.30;99.90;;;;;;6144794;28;20058;-76
2022/06/09 16:36:02;;;;;;;5.75;1.67;;;20.20;99.90;;;;;;6136812;28;20043;-76
2022/06/09 16:39:06;;;;;;;5.75;1.48;;;20.20;99.90;;;;;;6146439;28;20058;-76
2022/06/09 16:42:09;;;;;;;4.55;1.42;;;20.30;99.90;;;;;;6195651;28;20053;-76
2022/06/09 16:45:12;;;;;;;6.18;1.27;;;20.60;99.90;;;;;;6194715;28;20530;-76
2022/06/09 16:48:15;;;;;;;6.47;1.40;;;20.60;99.90;;;;;;6176285;28;20128;-76
2022/06/09 16:51:17;;;;;;;4.53;1.15;;;20.50;99.90;;;;;;6200326;28;20467;-76
2022/06/09 16:54:21;;;;;;;6.43;1.73;;;20.30;99.90;;;;;;6198486;28;20125;-76
2022/06/09 16:57:23;;;;;;;7.80;1.88;;;20.20;99.90;;;;;;6193478;28;20510;-76
2022/06/09 17:00:29;;;;;;;7.55;1.65;;;20.20;99.90;;;;;;6199414;28;20053;-77
2022/06/09 17:03:32;;;;;;;8.85;1.52;;;20.10;99.90;;;;;;6200227;28;20046;-76
2022/06/09 17:06:36;;;;;;;6.47;1.35;;;19.90;99.90;;;;;;6186800;28;20404;-76
2022/06/09 17:09:40;;;;;;;5.13;1.23;;;19.90;99.90;;;;;;6196979;28;20047;-76
2022/06/09 17:12:43;;;;;;;6.88;1.15;;;20.00;99.90;;;;;;6197709;28;20054;-76
2022/06/09 17:15:45;;;;;;;3.40;1.15;;;20.00;99.90;;;;;;6183216;28;20488;-76
2022/06/09 17:18:49;;;;;;;7.07;1.35;;;20.00;99.90;;;;;;6181164;28;20084;-76
2022/06/09 17:21:50;;;;;;;;;;;20.10;99.90;;;;;;6204770;28;20522;-76
2022/06/09 17:24:54;;;;;;;8.57;1.50;;;20.10;99.90;;;;;;6195326;28;19928;-75
2022/06/09 17:27:56;;;;;;;2.80;1.02;;;20.00;99.90;;;;;;6199916;28;20056;-75